KEWN/EWN METAR and TAF weather

Enter ICAO airport designator
Station Type Date Time Source
KEWN METAR 2019/04/22 23:54 UTC NOAA

KEWN 222354Z 00000KT 10SM CLR 19/09 A3011 RMK AO2 SLP195 T01890094 10233 20189 53007


Station Type Date Time Source
KEWN Decoded METAR 2019/04/22 23:54 UTC NOAA

New Bern, Craven County Regional Airport, NC, United States (KEWN) 35-04-03N 077-02-50W 3M
Apr 22, 2019 - 07:54 PM EDT / 2019.04.22 2354 UTC
Wind: Calm:0
Visibility: 10 mile(s):0
Sky conditions: clear
Temperature: 66.0 F (18.9 C)
Dew Point: 48.9 F (9.4 C)
Relative Humidity: 54%
Pressure (altimeter): 30.11 in. Hg (1019 hPa)
Pressure tendency: 0.02 inches (0.7 hPa) higher than three hours ago
ob: KEWN 222354Z 00000KT 10SM CLR 19/09 A3011 RMK AO2 SLP195 T01890094 10233 20189 53007
cycle: 0

Station Type Date Time Source
KEWN TAF 2019/04/22 18:24 UTC NOAA

TAF KEWN 221723Z 2218/2318 31007KT P6SM FEW060
FM222300 VRB04KT P6SM FEW250

Example: see airport list